Huvudsida
METAR-TAF:

METAR-TAF

Flygplatser :

Lviv, Ukraina

latitud: 49-49N, longitud: 023-57E, höjd: 319 m

Aktuellt väderrapport

Denna rapport gjordes för 7 minuter sedan, klockan 16:10 UTC
Vind 10 kt från nord
Temperatur -9°C
Fuktighet 79%
Tryck 1019 hPa
Sikt: 2100 m
Mulet på en höjd av 2200 ft
lätt snö

METAR: UKLL 241610Z 01005MPS 2100 -SN OVC022 M09/M12 Q1019 R31/420550 NOSIG

Tid: 18:17 (16:17 UTC)

Väderprognos

Denna rapport gjordes för 5 timmar och 15 minuter sedan, klockan 11:02 UTC
Prognos gäller från 24 kl. 12 UTC till 25 kl. 12 UTC
Vind 8 kt från nord
Sikt: 3000 m
Mulet på en höjd av 700 ft
lätt snö, fuktdis
Temporärt
från 24 kl. 12 UTC till 25 kl. 08 UTC
Vind 12 kt från nord/nordost i byarna ända upp till 21 kt
Sikt: 1100 m
Brutna moln på en höjd av 400 ft
Brutna moln på en höjd av 2000 ft, Cumulonimbus.
lätta snöbyar

TAF: UKLL 241102Z 2412/2512 35004MPS 3000 -SN BR OVC007 TEMPO 2412/2508 02006G11MPS 1100 -SHSN BKN004 BKN020CB

Aktuella väderrapporter och prognoser från 4000 flygplatser (METAR- och TAF-rapporter).

De tillgängliga stationerna syns som gula och röda prickar på kartan.

För musen över prickarna för att se namnen på stationerna.

Klicka sedan för att få väderrapporter och prognoser.

För att ändra kartan: Klicka på de gröna knapparna med ett svart kors på för att zooma in; den gröna knappen med ett streck på för att zooma ut; eller på de gröna pilarna för angränsande kartor.


METAR-TAF: